Time;durP1;ratioP1;P1;durP2;ratioP2;P2;SDS_P1;SDS_P2;PMS_P1;PMS_P2;Temp;Humidity;BMP_temperature;BMP_pressure;BME280_temperature;BME280_humidity;BME280_pressure;Samples;Min_cycle;Max_cycle;Signal;HPM_P1;HPM_P2
2023/01/05 00:01:51;;;;;;;2.90;1.20;;;13.80;44.10;;;;;;5000047;28;20445;-73
2023/01/05 00:04:17;;;;;;;3.00;1.30;;;14.10;45.00;;;;;;5013184;28;20929;-73
2023/01/05 00:06:43;;;;;;;3.00;1.20;;;13.90;45.00;;;;;;5020017;28;20433;-73
2023/01/05 00:09:14;;;;;;;2.90;1.10;;;14.00;44.10;;;;;;5012776;28;20920;-73
2023/01/05 00:23:01;;;;;;;3.00;1.20;;;14.10;43.30;;;;;;4967139;28;20469;-70
2023/01/05 00:25:32;;;;;;;3.10;1.30;;;14.70;42.00;;;;;;5011934;28;20392;-71
2023/01/05 00:27:59;;;;;;;3.10;1.37;;;14.70;43.00;;;;;;5011144;28;20495;-74
2023/01/05 00:30:42;;;;;;;3.00;1.20;;;13.80;45.10;;;;;;5009471;28;20538;-72
2023/01/05 00:33:08;;;;;;;3.00;1.20;;;14.00;44.10;;;;;;5004258;28;20494;-72
2023/01/05 00:35:34;;;;;;;3.10;1.33;;;13.90;44.10;;;;;;5015596;28;20509;-75
2023/01/05 00:38:00;;;;;;;3.00;1.20;;;14.10;43.60;;;;;;5015745;28;20845;-73
2023/01/05 00:40:25;;;;;;;2.90;1.20;;;13.70;44.90;;;;;;5033375;28;20201;-83
2023/01/05 00:42:51;;;;;;;2.90;1.10;;;14.60;44.20;;;;;;5024707;28;20473;-72
2023/01/05 00:45:19;;;;;;;2.90;1.20;;;13.80;45.30;;;;;;5015351;28;20208;-72
2023/01/05 00:47:44;;;;;;;3.00;1.20;;;13.30;47.20;;;;;;5009343;28;20199;-76
2023/01/05 00:50:15;;;;;;;2.93;1.17;;;13.90;46.10;;;;;;5014643;28;20458;-76
2023/01/05 00:52:41;;;;;;;3.00;1.20;;;13.70;47.70;;;;;;5013080;28;20189;-75
2023/01/05 00:55:07;;;;;;;2.97;1.17;;;13.30;51.70;;;;;;5014231;28;20852;-72
2023/01/05 00:57:33;;;;;;;2.90;1.10;;;13.30;52.80;;;;;;5013264;28;20654;-77
2023/01/05 01:00:00;;;;;;;3.03;1.27;;;13.10;53.60;;;;;;5014463;28;20423;-72
2023/01/05 01:02:26;;;;;;;3.00;1.20;;;13.30;55.40;;;;;;5010444;28;20175;-71
2023/01/05 01:04:52;;;;;;;3.00;1.20;;;12.60;58.40;;;;;;5012243;28;20592;-72
2023/01/05 01:07:17;;;;;;;2.90;1.20;;;12.70;58.40;;;;;;5014881;28;20187;-72
2023/01/05 01:09:43;;;;;;;3.00;1.20;;;13.10;55.20;;;;;;5014922;28;20286;-75
2023/01/05 01:12:08;;;;;;;3.03;1.23;;;12.90;55.80;;;;;;5013973;28;20200;-72
2023/01/05 01:14:34;;;;;;;2.87;1.10;;;12.80;57.10;;;;;;5004552;28;20804;-71
2023/01/05 01:17:00;;;;;;;3.00;1.20;;;13.20;54.80;;;;;;5002885;28;20176;-72
2023/01/05 01:19:26;;;;;;;3.00;1.23;;;13.60;53.30;;;;;;4997253;28;20445;-72
2023/01/05 01:21:52;;;;;;;2.93;1.20;;;13.10;54.50;;;;;;5014680;28;20635;-73
2023/01/05 01:24:27;;;;;;;3.00;1.20;;;13.50;52.50;;;;;;5009617;28;20650;-73
2023/01/05 01:26:54;;;;;;;2.90;1.10;;;13.40;55.70;;;;;;5015850;28;20402;-72
2023/01/05 01:29:21;;;;;;;2.93;1.10;;;13.50;53.80;;;;;;4997567;28;20472;-74
2023/01/05 01:31:47;;;;;;;2.90;1.10;;;13.60;51.90;;;;;;5014419;28;20412;-76
2023/01/05 01:34:14;;;;;;;3.00;1.20;;;13.60;51.90;;;;;;5031810;22;20611;-71
2023/01/05 01:36:39;;;;;;;2.90;1.10;;;13.60;51.90;;;;;;4986818;28;20798;-71
2023/01/05 01:39:05;;;;;;;2.90;1.10;;;13.40;54.70;;;;;;4994444;28;20466;-71
2023/01/05 01:41:31;;;;;;;2.90;1.10;;;13.70;51.20;;;;;;4993321;28;20214;-71
2023/01/05 01:43:56;;;;;;;2.90;1.10;;;13.80;51.50;;;;;;4994239;28;20286;-71
2023/01/05 01:46:24;;;;;;;3.00;1.20;;;13.50;52.00;;;;;;4990327;28;20314;-71
2023/01/05 01:48:57;;;;;;;3.00;1.20;;;13.30;53.10;;;;;;4994447;28;20419;-72
2023/01/05 01:51:35;;;;;;;3.00;1.20;;;13.20;53.90;;;;;;4993951;28;20798;-71
2023/01/05 01:54:07;;;;;;;2.87;1.10;;;13.30;53.40;;;;;;4994393;28;20465;-71
2023/01/05 01:56:44;;;;;;;2.90;1.17;;;12.60;57.90;;;;;;4991905;28;20679;-71
2023/01/05 01:59:11;;;;;;;2.90;1.20;;;13.00;55.40;;;;;;4994350;28;21013;-71
2023/01/05 02:01:37;;;;;;;2.90;1.10;;;13.00;55.50;;;;;;4994077;28;20789;-71
2023/01/05 02:04:03;;;;;;;2.90;1.20;;;13.70;54.20;;;;;;4993872;28;20434;-71
2023/01/05 02:06:29;;;;;;;2.97;1.23;;;13.10;54.70;;;;;;4986833;28;20182;-71
2023/01/05 02:08:55;;;;;;;3.00;1.30;;;13.00;56.00;;;;;;4994017;28;20416;-71
2023/01/05 02:11:36;;;;;;;2.90;1.20;;;13.60;55.40;;;;;;4993697;28;20688;-71
2023/01/05 02:14:17;;;;;;;2.80;1.10;;;13.60;52.80;;;;;;4993929;28;20200;-72
2023/01/05 02:16:48;;;;;;;2.80;1.10;;;13.70;52.00;;;;;;4991121;28;20455;-71
2023/01/05 02:19:35;;;;;;;2.90;1.20;;;13.50;52.10;;;;;;4993491;28;21009;-71
2023/01/05 02:22:25;;;;;;;2.90;1.20;;;13.50;52.70;;;;;;4993344;28;20435;-71
2023/01/05 02:24:53;;;;;;;2.90;1.17;;;13.60;52.80;;;;;;4988545;28;20431;-71
2023/01/05 02:27:43;;;;;;;2.90;1.10;;;13.30;54.20;;;;;;4989422;28;20449;-71
2023/01/05 02:30:20;;;;;;;2.80;1.10;;;13.20;55.00;;;;;;4996580;28;20419;-71
2023/01/05 02:32:51;;;;;;;2.80;1.10;;;13.00;55.80;;;;;;4993551;28;20407;-71
2023/01/05 02:35:32;;;;;;;2.80;1.10;;;13.10;55.30;;;;;;4991940;28;20449;-70
2023/01/05 02:38:14;;;;;;;2.97;1.20;;;13.20;55.00;;;;;;4991642;28;20878;-71
2023/01/05 02:40:46;;;;;;;2.90;1.20;;;13.20;55.40;;;;;;4992765;28;20439;-71
2023/01/05 02:43:14;;;;;;;2.90;1.13;;;13.00;55.90;;;;;;4993319;28;20432;-71
2023/01/05 02:45:39;;;;;;;2.93;1.20;;;12.90;56.80;;;;;;4993149;28;20446;-71
2023/01/05 02:48:05;;;;;;;2.90;1.20;;;13.10;55.30;;;;;;4989648;28;21119;-71
2023/01/05 02:50:41;;;;;;;3.00;1.20;;;13.20;55.40;;;;;;4991297;28;20192;-71
2023/01/05 02:53:21;;;;;;;3.00;1.30;;;13.40;54.40;;;;;;4987064;28;20489;-71
2023/01/05 02:55:52;;;;;;;2.90;1.17;;;14.10;52.40;;;;;;4991719;28;20828;-71
2023/01/05 02:58:26;;;;;;;3.00;1.20;;;14.30;51.30;;;;;;4984878;28;20798;-72
2023/01/05 03:01:01;;;;;;;2.90;1.10;;;13.50;53.50;;;;;;4991073;28;20838;-71
2023/01/05 03:03:49;;;;;;;2.87;1.10;;;12.90;56.70;;;;;;4992526;28;20438;-71
2023/01/05 03:06:24;;;;;;;2.87;1.10;;;13.40;54.70;;;;;;4992690;28;20542;-71
2023/01/05 03:08:54;;;;;;;2.90;1.10;;;13.00;55.40;;;;;;4992007;28;20867;-71
2023/01/05 03:14:27;;;;;;;2.90;1.10;;;13.00;57.30;;;;;;4992786;28;20954;-72
2023/01/05 03:16:56;;;;;;;2.83;1.10;;;13.70;53.70;;;;;;4992597;28;20925;-71
2023/01/05 03:19:35;;;;;;;2.80;1.10;;;13.80;52.30;;;;;;4992284;28;20799;-71
2023/01/05 03:36:23;;;;;;;2.90;1.20;;;13.40;55.50;;;;;;4992444;28;20447;-71
2023/01/05 03:38:51;;;;;;;2.83;1.10;;;13.20;55.00;;;;;;4992659;28;20411;-71
2023/01/05 03:41:22;;;;;;;2.90;1.10;;;13.30;54.30;;;;;;4991623;28;20442;-71
2023/01/05 03:43:48;;;;;;;2.80;1.10;;;13.80;52.00;;;;;;4991085;28;20455;-71
2023/01/05 03:46:18;;;;;;;2.90;1.10;;;13.90;51.30;;;;;;4992249;28;20421;-71
2023/01/05 03:48:44;;;;;;;2.80;1.10;;;13.90;51.20;;;;;;4991242;28;20423;-72
2023/01/05 03:51:10;;;;;;;2.90;1.10;;;14.00;50.20;;;;;;4992190;28;20744;-71
2023/01/05 03:53:35;;;;;;;3.00;1.20;;;14.30;49.20;;;;;;4989401;28;20208;-72
2023/01/05 03:56:01;;;;;;;2.90;1.10;;;13.60;51.90;;;;;;4992064;28;20667;-71
2023/01/05 03:58:27;;;;;;;2.90;1.13;;;13.80;52.10;;;;;;4992073;28;20186;-72
2023/01/05 04:00:52;;;;;;;2.90;1.20;;;14.10;51.00;;;;;;4992274;28;20171;-71
2023/01/05 04:03:18;;;;;;;2.93;1.20;;;13.50;52.10;;;;;;4985234;28;20754;-71
2023/01/05 04:05:43;;;;;;;2.90;1.20;;;14.00;52.30;;;;;;4990457;28;20217;-72
2023/01/05 04:08:09;;;;;;;2.90;1.20;;;13.90;50.80;;;;;;4991239;28;20184;-72
2023/01/05 04:10:34;;;;;;;2.90;1.20;;;14.00;50.30;;;;;;4992391;28;20232;-72
2023/01/05 04:13:00;;;;;;;3.00;1.20;;;13.70;51.80;;;;;;4992731;28;20280;-72
2023/01/05 04:15:26;;;;;;;2.90;1.10;;;13.60;52.30;;;;;;4988275;28;20210;-71
2023/01/05 04:17:51;;;;;;;2.90;1.10;;;13.40;52.90;;;;;;4990909;28;20270;-72
2023/01/05 04:20:17;;;;;;;2.90;1.10;;;13.50;53.20;;;;;;4991786;28;20185;-71
2023/01/05 04:22:42;;;;;;;2.90;1.13;;;13.50;53.00;;;;;;4988230;28;20246;-72
2023/01/05 04:25:08;;;;;;;2.97;1.17;;;13.60;51.90;;;;;;4990293;28;20305;-71
2023/01/05 04:27:34;;;;;;;2.93;1.20;;;13.50;52.90;;;;;;4991903;28;20191;-72
2023/01/05 04:30:00;;;;;;;2.90;1.10;;;13.80;51.20;;;;;;4991997;28;20422;-72
2023/01/05 04:32:25;;;;;;;2.90;1.10;;;14.30;48.90;;;;;;4987936;28;20275;-71
2023/01/05 04:34:51;;;;;;;2.90;1.20;;;14.20;49.00;;;;;;4989148;28;20223;-71
2023/01/05 04:37:16;;;;;;;2.90;1.10;;;14.20;49.20;;;;;;4989351;28;20710;-71
2023/01/05 04:39:42;;;;;;;2.90;1.10;;;14.80;46.80;;;;;;4991777;28;20176;-71
2023/01/05 04:42:08;;;;;;;2.90;1.17;;;14.50;47.00;;;;;;4991354;28;20263;-71
2023/01/05 04:44:33;;;;;;;2.90;1.10;;;14.10;49.10;;;;;;4991342;28;20205;-72
2023/01/05 04:46:59;;;;;;;2.80;1.10;;;14.40;47.90;;;;;;4991486;28;20648;-71
2023/01/05 04:49:24;;;;;;;2.90;1.10;;;14.30;47.80;;;;;;4991624;28;20176;-72
2023/01/05 04:51:50;;;;;;;2.90;1.10;;;14.30;48.10;;;;;;4991832;28;20234;-71
2023/01/05 04:54:16;;;;;;;2.80;1.07;;;14.60;48.20;;;;;;4990429;28;20690;-71
2023/01/05 04:56:41;;;;;;;2.80;1.00;;;14.20;48.60;;;;;;4989928;28;20672;-71
2023/01/05 04:59:07;;;;;;;2.90;1.10;;;14.30;47.70;;;;;;4991393;28;20200;-71
2023/01/05 05:01:33;;;;;;;2.97;1.20;;;14.30;48.00;;;;;;4991584;28;20665;-72
2023/01/05 05:03:58;;;;;;;2.80;1.10;;;14.80;46.20;;;;;;4990646;28;20724;-72
2023/01/05 05:06:24;;;;;;;2.80;1.00;;;14.50;47.10;;;;;;4990209;28;20178;-72
2023/01/05 05:08:49;;;;;;;2.90;1.10;;;14.70;46.20;;;;;;4991054;28;20192;-72
2023/01/05 05:11:15;;;;;;;2.80;1.10;;;14.50;46.60;;;;;;4991633;28;20189;-72
2023/01/05 05:13:41;;;;;;;2.83;1.10;;;14.30;48.40;;;;;;4991497;28;20192;-72
2023/01/05 05:16:07;;;;;;;2.80;1.10;;;13.90;49.50;;;;;;4991828;28;20663;-72
2023/01/05 05:18:32;;;;;;;2.90;1.10;;;13.80;50.00;;;;;;4990341;28;20180;-72
2023/01/05 05:20:58;;;;;;;2.90;1.20;;;14.50;48.90;;;;;;4995069;28;20902;-72
2023/01/05 05:23:23;;;;;;;2.90;1.20;;;14.30;47.80;;;;;;4991523;28;20212;-72
2023/01/05 05:25:50;;;;;;;2.90;1.20;;;14.10;48.90;;;;;;4992444;28;20700;-72
2023/01/05 05:28:16;;;;;;;2.80;1.10;;;14.10;49.00;;;;;;4993299;28;20193;-72
2023/01/05 05:30:42;;;;;;;2.83;1.10;;;14.00;49.90;;;;;;4978370;28;20447;-71
2023/01/05 05:33:07;;;;;;;2.93;1.17;;;14.10;49.30;;;;;;4993273;28;20834;-72
2023/01/05 05:35:33;;;;;;;2.90;1.20;;;14.10;49.70;;;;;;4990979;28;20211;-71
2023/01/05 05:38:00;;;;;;;2.90;1.13;;;14.60;48.50;;;;;;4994717;28;20558;-72
2023/01/05 05:40:25;;;;;;;2.87;1.13;;;14.60;46.80;;;;;;4989478;28;20725;-72
2023/01/05 05:42:51;;;;;;;2.80;1.00;;;14.70;46.90;;;;;;4989950;28;20419;-72
2023/01/05 05:45:16;;;;;;;2.90;1.20;;;14.90;45.80;;;;;;4992269;28;20201;-72
2023/01/05 05:47:42;;;;;;;3.00;1.20;;;14.80;46.20;;;;;;4992606;28;20194;-72
2023/01/05 05:50:09;;;;;;;2.90;1.10;;;14.60;46.70;;;;;;4994322;28;20188;-72
2023/01/05 05:52:34;;;;;;;2.83;1.00;;;14.50;47.80;;;;;;4994198;28;20435;-72
2023/01/05 05:55:00;;;;;;;2.83;1.10;;;13.90;49.30;;;;;;4993262;28;20463;-72
2023/01/05 05:57:26;;;;;;;2.90;1.10;;;14.10;50.70;;;;;;4990872;28;20194;-72
2023/01/05 05:59:51;;;;;;;2.90;1.10;;;14.10;49.90;;;;;;4993643;28;20195;-72
2023/01/05 06:02:18;;;;;;;2.97;1.27;;;14.20;49.10;;;;;;4993954;28;20180;-72
2023/01/05 06:04:44;;;;;;;2.90;1.10;;;14.20;48.40;;;;;;4991569;28;20294;-72
2023/01/05 06:07:09;;;;;;;2.70;1.10;;;13.60;52.00;;;;;;4993890;28;20860;-72
2023/01/05 06:09:35;;;;;;;2.90;1.10;;;13.70;52.70;;;;;;4991951;28;20875;-72
2023/01/05 06:12:00;;;;;;;2.93;1.20;;;14.20;49.80;;;;;;4993993;28;20238;-73
2023/01/05 06:14:26;;;;;;;2.90;1.10;;;14.20;49.70;;;;;;4992813;28;20652;-72
2023/01/05 06:16:52;;;;;;;2.90;1.00;;;14.20;48.90;;;;;;4990928;28;20191;-72
2023/01/05 06:19:17;;;;;;;2.90;1.10;;;14.10;49.50;;;;;;4993218;28;20177;-72
2023/01/05 06:21:43;;;;;;;2.90;1.10;;;14.10;49.70;;;;;;4993531;28;20187;-72
2023/01/05 06:24:09;;;;;;;2.80;1.10;;;13.90;50.20;;;;;;4990991;28;20675;-73
2023/01/05 06:26:34;;;;;;;2.80;1.10;;;14.00;50.20;;;;;;4990405;28;20314;-72
2023/01/05 06:29:00;;;;;;;2.90;1.20;;;13.60;51.90;;;;;;4993030;28;20180;-72
2023/01/05 06:31:26;;;;;;;2.90;1.17;;;13.50;53.10;;;;;;4993583;28;20803;-72
2023/01/05 06:33:52;;;;;;;2.87;1.10;;;13.80;52.60;;;;;;4989359;28;20662;-72
2023/01/05 06:36:17;;;;;;;2.90;1.10;;;13.90;50.40;;;;;;4990658;28;20214;-73
2023/01/05 06:38:43;;;;;;;2.90;1.10;;;13.90;49.90;;;;;;4991655;28;20187;-72
2023/01/05 06:41:09;;;;;;;2.80;1.00;;;13.80;50.70;;;;;;4993077;28;20222;-72
2023/01/05 06:43:34;;;;;;;3.53;1.60;;;13.90;50.40;;;;;;4990899;28;20493;-72
2023/01/05 06:46:00;;;;;;;2.90;1.20;;;14.00;51.20;;;;;;4994389;28;20194;-72
2023/01/05 06:48:26;;;;;;;2.97;1.20;;;13.70;51.90;;;;;;4995057;28;20180;-72
2023/01/05 06:50:51;;;;;;;2.90;1.20;;;13.90;50.80;;;;;;4993270;28;20259;-72
2023/01/05 06:53:17;;;;;;;2.90;1.10;;;13.70;51.30;;;;;;4991276;28;20233;-72
2023/01/05 06:55:44;;;;;;;2.90;1.13;;;13.90;50.40;;;;;;4991694;28;20615;-72
2023/01/05 06:58:10;;;;;;;2.90;1.10;;;13.70;50.20;;;;;;4987479;28;20179;-72
2023/01/05 07:00:35;;;;;;;2.90;1.20;;;13.70;51.20;;;;;;4994113;28;20426;-71
2023/01/05 07:03:01;;;;;;;2.90;1.10;;;13.60;51.40;;;;;;4995350;28;20204;-72
2023/01/05 07:05:26;;;;;;;2.93;1.20;;;13.50;51.80;;;;;;4995782;28;20192;-71
2023/01/05 07:07:52;;;;;;;2.80;1.10;;;13.60;51.90;;;;;;4996603;28;20191;-72
2023/01/05 07:10:18;;;;;;;2.87;1.10;;;13.60;51.90;;;;;;4994574;28;20189;-72
2023/01/05 07:12:43;;;;;;;2.83;1.00;;;13.60;51.20;;;;;;4993246;28;20323;-71
2023/01/05 07:15:09;;;;;;;2.87;1.00;;;13.10;54.50;;;;;;4991918;28;20207;-72
2023/01/05 07:17:35;;;;;;;2.90;1.10;;;13.20;54.10;;;;;;4991805;28;20555;-72
2023/01/05 07:20:02;;;;;;;2.90;1.10;;;13.50;52.70;;;;;;4986779;28;20187;-72
2023/01/05 07:22:29;;;;;;;2.90;1.10;;;13.90;51.70;;;;;;4992406;28;20409;-72
2023/01/05 07:24:56;;;;;;;2.83;1.10;;;13.90;50.70;;;;;;4992409;28;21012;-72
2023/01/05 07:27:22;;;;;;;2.83;1.20;;;13.70;53.20;;;;;;4992815;28;20905;-72
2023/01/05 07:29:48;;;;;;;2.83;1.10;;;14.10;52.30;;;;;;4991920;28;20450;-72
2023/01/05 07:32:13;;;;;;;2.80;1.10;;;13.00;56.30;;;;;;4992254;28;20184;-73
2023/01/05 07:34:39;;;;;;;2.90;1.20;;;12.50;64.40;;;;;;4990911;28;20223;-73
2023/01/05 07:37:04;;;;;;;3.00;1.30;;;12.40;68.90;;;;;;4991810;28;20191;-74
2023/01/05 07:39:30;;;;;;;2.80;1.10;;;12.50;68.20;;;;;;4991411;28;20182;-73
2023/01/05 07:41:56;;;;;;;2.83;1.13;;;12.50;73.20;;;;;;4992176;28;20567;-73
2023/01/05 07:44:21;;;;;;;2.80;1.10;;;12.30;75.10;;;;;;4992272;28;20194;-73
2023/01/05 07:46:47;;;;;;;2.90;1.20;;;11.90;82.00;;;;;;4991039;28;20528;-73
2023/01/05 07:49:14;;;;;;;2.80;1.13;;;12.10;80.50;;;;;;4992459;28;20253;-73
2023/01/05 07:51:40;;;;;;;2.90;1.30;;;12.30;79.50;;;;;;4990773;28;20215;-73
2023/01/05 07:54:05;;;;;;;2.80;1.13;;;12.90;73.80;;;;;;4990613;28;20493;-74
2023/01/05 07:56:31;;;;;;;2.80;1.10;;;12.30;77.10;;;;;;4992064;28;20217;-73
2023/01/05 07:58:57;;;;;;;2.73;1.10;;;12.10;82.10;;;;;;4992126;28;20844;-73
2023/01/05 08:01:23;;;;;;;2.70;1.10;;;11.90;82.20;;;;;;4989883;28;20194;-73
2023/01/05 08:03:48;;;;;;;2.80;1.20;;;12.00;83.30;;;;;;4985912;28;20470;-73
2023/01/05 08:06:17;;;;;;;2.67;1.10;;;11.90;83.40;;;;;;4990230;28;20190;-73
2023/01/05 08:08:42;;;;;;;2.70;1.10;;;11.80;85.40;;;;;;4989607;28;20602;-73
2023/01/05 08:11:10;;;;;;;2.70;1.00;;;11.80;85.70;;;;;;4991384;28;20441;-73
2023/01/05 08:16:21;;;;;;;2.70;1.10;;;11.90;83.70;;;;;;4992042;28;20455;-73
2023/01/05 08:18:46;;;;;;;2.70;1.20;;;11.80;84.50;;;;;;4992078;28;20418;-73
2023/01/05 08:21:13;;;;;;;2.70;1.10;;;11.90;81.70;;;;;;4989936;28;20904;-73
2023/01/05 08:23:39;;;;;;;2.70;1.00;;;12.30;80.60;;;;;;4991664;28;20526;-73
2023/01/05 08:26:14;;;;;;;2.67;1.00;;;12.70;74.90;;;;;;4991840;28;20461;-73
2023/01/05 08:28:40;;;;;;;2.70;1.13;;;13.30;70.90;;;;;;4991304;28;20436;-73
2023/01/05 08:31:21;;;;;;;2.70;1.10;;;13.10;75.00;;;;;;4991689;28;20946;-74
2023/01/05 08:33:47;;;;;;;2.73;1.10;;;12.90;72.10;;;;;;4988581;28;20473;-73
2023/01/05 08:36:16;;;;;;;2.70;1.10;;;13.30;71.80;;;;;;4990703;28;20462;-73
2023/01/05 08:38:46;;;;;;;2.70;1.10;;;13.20;71.40;;;;;;4991732;28;20185;-73
2023/01/05 08:41:17;;;;;;;2.73;1.10;;;12.70;73.30;;;;;;4990870;28;20483;-74
2023/01/05 08:43:47;;;;;;;2.80;1.20;;;12.60;75.90;;;;;;4991592;28;20525;-73
2023/01/05 08:46:13;;;;;;;2.80;1.20;;;13.20;74.30;;;;;;4991829;28;20405;-73
2023/01/05 08:48:38;;;;;;;2.73;1.20;;;12.90;75.20;;;;;;4990652;28;21239;-74
2023/01/05 08:51:06;;;;;;;3.47;1.53;;;12.60;75.60;;;;;;4993400;28;20203;-73
2023/01/05 08:53:34;;;;;;;2.80;1.10;;;12.50;76.30;;;;;;4994268;28;20199;-73
2023/01/05 08:56:01;;;;;;;2.90;1.30;;;12.60;76.70;;;;;;4993164;28;20559;-73
2023/01/05 08:58:27;;;;;;;2.70;1.10;;;13.30;74.40;;;;;;4995188;28;21112;-73
2023/01/05 09:00:53;;;;;;;2.70;1.10;;;13.00;71.50;;;;;;4992062;28;20435;-73
2023/01/05 09:03:19;;;;;;;4.80;1.50;;;12.80;73.60;;;;;;4993670;28;20464;-74
2023/01/05 09:05:45;;;;;;;2.80;1.10;;;13.20;74.30;;;;;;4995015;28;20413;-73
2023/01/05 09:08:10;;;;;;;2.70;1.10;;;13.50;71.00;;;;;;4993885;28;20439;-73
2023/01/05 09:10:36;;;;;;;2.80;1.20;;;13.30;68.70;;;;;;4994962;28;20209;-73
2023/01/05 09:13:01;;;;;;;2.70;1.07;;;13.70;66.00;;;;;;4993819;28;20258;-73
2023/01/05 09:15:27;;;;;;;2.80;1.10;;;14.20;60.80;;;;;;4993702;28;20239;-74
2023/01/05 09:17:52;;;;;;;3.63;1.40;;;14.30;60.00;;;;;;4993557;28;20681;-73
2023/01/05 09:20:18;;;;;;;2.70;1.00;;;14.70;58.30;;;;;;4994757;28;20266;-70
2023/01/05 09:22:44;;;;;;;2.77;1.10;;;15.00;57.20;;;;;;4994411;28;20200;-76
2023/01/05 09:25:10;;;;;;;2.80;1.20;;;15.30;56.40;;;;;;4996220;28;20196;-78
2023/01/05 09:27:36;;;;;;;2.70;1.10;;;15.70;54.90;;;;;;4995098;28;20210;-79
2023/01/05 09:30:03;;;;;;;2.70;1.10;;;15.50;53.70;;;;;;4996090;28;20199;-77
2023/01/05 09:32:28;;;;;;;2.87;1.20;;;14.80;52.40;;;;;;4992330;28;20450;-73
2023/01/05 09:34:54;;;;;;;2.90;1.30;;;14.90;53.40;;;;;;4994048;28;20478;-74
2023/01/05 09:37:19;;;;;;;2.70;1.10;;;15.10;50.00;;;;;;4992019;28;20202;-72
2023/01/05 09:39:46;;;;;;;2.80;1.20;;;15.00;50.90;;;;;;4991902;28;20279;-75
2023/01/05 09:42:16;;;;;;;2.80;1.13;;;14.60;53.50;;;;;;4995522;28;20208;-73
2023/01/05 09:45:04;;;;;;;2.80;1.10;;;14.30;54.90;;;;;;4993138;28;20862;-74
2023/01/05 09:47:40;;;;;;;2.80;1.10;;;14.50;53.60;;;;;;4978395;28;20522;-74
2023/01/05 09:50:08;;;;;;;2.73;1.10;;;15.10;53.50;;;;;;4989939;28;20442;-76
2023/01/05 09:52:34;;;;;;;3.43;1.53;;;15.40;53.60;;;;;;4989291;28;20420;-73
2023/01/05 09:55:01;;;;;;;2.90;1.20;;;15.50;52.10;;;;;;4990311;28;20466;-73
2023/01/05 09:57:28;;;;;;;3.63;1.30;;;15.70;50.60;;;;;;4992569;28;20789;-73
2023/01/05 10:00:02;;;;;;;2.80;1.10;;;15.70;51.60;;;;;;4994498;28;20439;-72
2023/01/05 10:02:53;;;;;;;3.67;1.50;;;15.80;50.80;;;;;;4974178;28;20431;-74
2023/01/05 10:05:20;;;;;;;2.70;1.00;;;15.80;49.90;;;;;;4988731;28;20958;-72
2023/01/05 10:07:53;;;;;;;2.80;1.10;;;15.70;50.10;;;;;;4990588;28;20541;-73
2023/01/05 10:10:37;;;;;;;2.73;1.07;;;15.00;51.00;;;;;;4994326;28;20442;-73
2023/01/05 10:13:06;;;;;;;2.80;1.10;;;14.80;51.80;;;;;;4991670;28;20533;-73
2023/01/05 10:15:47;;;;;;;2.80;1.10;;;14.20;53.20;;;;;;4989074;28;20468;-73
2023/01/05 10:18:17;;;;;;;2.80;1.10;;;14.00;55.10;;;;;;4991126;28;20968;-74
2023/01/05 10:21:08;;;;;;;2.73;1.10;;;14.20;53.90;;;;;;4992465;28;20833;-74
2023/01/05 10:24:00;;;;;;;2.80;1.10;;;13.90;53.50;;;;;;4985972;28;20454;-79
2023/01/05 10:27:05;;;;;;;2.80;1.20;;;13.50;58.00;;;;;;4993718;28;20793;-74
2023/01/05 10:29:46;;;;;;;2.87;1.20;;;13.80;57.50;;;;;;4993526;28;20429;-73
2023/01/05 10:32:38;;;;;;;2.70;1.10;;;13.70;55.80;;;;;;4992296;28;20438;-74
2023/01/05 10:35:30;;;;;;;2.90;1.20;;;13.50;55.20;;;;;;4979017;28;20895;-73
2023/01/05 10:38:21;;;;;;;2.80;1.20;;;13.40;57.00;;;;;;4987032;28;20420;-73
2023/01/05 10:41:22;;;;;;;2.70;1.03;;;12.80;57.60;;;;;;4993075;28;20428;-72
2023/01/05 10:43:59;;;;;;;2.90;1.20;;;13.10;56.90;;;;;;4994037;28;20464;-71
2023/01/05 10:46:25;;;;;;;2.80;1.13;;;13.50;56.20;;;;;;4982778;28;20423;-72
2023/01/05 10:48:51;;;;;;;3.10;1.40;;;14.30;52.60;;;;;;4993066;28;20450;-72
2023/01/05 10:51:17;;;;;;;2.90;1.20;;;14.30;50.80;;;;;;4993349;28;20185;-72
2023/01/05 10:53:43;;;;;;;2.80;1.20;;;14.30;50.20;;;;;;4989460;28;20213;-72
2023/01/05 10:56:21;;;;;;;2.80;1.10;;;14.40;47.30;;;;;;4992685;28;20465;-72
2023/01/05 10:58:47;;;;;;;2.80;1.10;;;14.00;47.90;;;;;;4993940;28;20424;-72
2023/01/05 11:01:30;;;;;;;2.70;1.10;;;13.30;49.00;;;;;;4994898;28;20444;-73
2023/01/05 11:04:06;;;;;;;2.97;1.20;;;13.30;51.60;;;;;;5001801;28;20214;-72
2023/01/05 11:06:34;;;;;;;2.90;1.17;;;13.10;51.50;;;;;;4985461;28;20419;-72
2023/01/05 11:09:12;;;;;;;2.80;1.20;;;13.40;50.00;;;;;;4993067;28;20981;-72
2023/01/05 11:11:38;;;;;;;2.70;1.10;;;14.20;47.20;;;;;;4983772;28;20925;-72
2023/01/05 11:14:04;;;;;;;2.90;1.20;;;13.70;47.10;;;;;;4984273;28;20459;-72
2023/01/05 11:16:32;;;;;;;2.90;1.53;;;13.30;49.10;;;;;;4990400;28;20472;-72
2023/01/05 11:19:03;;;;;;;3.00;1.30;;;13.80;47.00;;;;;;4985292;28;20540;-71
2023/01/05 11:21:44;;;;;;;3.07;1.43;;;14.00;46.60;;;;;;4989706;28;20922;-72
2023/01/05 11:24:27;;;;;;;2.90;1.20;;;13.60;44.60;;;;;;4988059;28;20459;-72
2023/01/05 11:27:00;;;;;;;2.80;1.17;;;13.50;47.90;;;;;;4988656;28;20532;-72
2023/01/05 11:29:26;;;;;;;2.80;1.20;;;13.70;44.30;;;;;;4983468;28;20971;-71
2023/01/05 11:32:04;;;;;;;2.77;1.10;;;13.60;42.90;;;;;;4987245;28;20519;-71
2023/01/05 11:34:47;;;;;;;2.70;1.10;;;13.10;46.10;;;;;;4981545;28;20476;-71
2023/01/05 11:37:27;;;;;;;3.50;1.30;;;13.60;44.60;;;;;;4992141;28;20824;-72
2023/01/05 11:40:00;;;;;;;2.80;1.10;;;13.60;46.40;;;;;;4986469;28;20842;-71
2023/01/05 11:42:25;;;;;;;2.80;1.20;;;13.60;44.30;;;;;;4986489;28;20440;-72
2023/01/05 11:45:13;;;;;;;2.87;1.23;;;14.00;44.80;;;;;;4995611;28;20454;-72
2023/01/05 11:47:48;;;;;;;2.80;1.10;;;13.80;43.50;;;;;;4986775;28;20185;-72
2023/01/05 11:50:23;;;;;;;2.90;1.20;;;13.20;45.70;;;;;;4984190;28;20475;-72
2023/01/05 11:52:54;;;;;;;2.77;1.10;;;13.20;46.70;;;;;;4983693;28;20907;-72
2023/01/05 11:55:34;;;;;;;2.90;1.20;;;13.60;45.40;;;;;;4985382;28;20536;-72
2023/01/05 11:58:30;;;;;;;2.80;1.13;;;13.40;45.00;;;;;;4991948;28;20815;-74
2023/01/05 12:01:15;;;;;;;2.70;1.10;;;13.50;46.10;;;;;;4988620;28;20524;-73
2023/01/05 12:03:56;;;;;;;2.70;1.10;;;14.20;43.50;;;;;;4990223;28;20480;-71
2023/01/05 12:06:46;;;;;;;2.70;1.10;;;14.00;42.70;;;;;;4993151;28;20444;-71
2023/01/05 12:09:30;;;;;;;2.73;1.10;;;13.60;45.10;;;;;;4991371;28;20425;-72
2023/01/05 12:12:10;;;;;;;2.90;1.30;;;13.60;44.30;;;;;;4991562;28;20429;-72
2023/01/05 12:15:22;;;;;;;4.33;1.57;;;13.80;44.00;;;;;;4984793;28;20447;-73
2023/01/05 12:17:52;;;;;;;2.80;1.20;;;14.00;45.00;;;;;;4949023;28;20452;-72
2023/01/05 12:20:50;;;;;;;2.83;1.20;;;14.40;42.90;;;;;;4945034;28;20869;-78
2023/01/05 12:23:18;;;;;;;3.10;1.50;;;14.30;43.30;;;;;;4958433;28;20472;-75
2023/01/05 12:26:22;;;;;;;2.80;1.10;;;14.10;44.10;;;;;;4950546;28;20434;-75
2023/01/05 12:29:06;;;;;;;2.80;1.10;;;13.70;44.90;;;;;;4948901;28;20492;-72
2023/01/05 12:31:59;;;;;;;2.77;1.10;;;13.30;46.00;;;;;;4966030;28;20413;-71
2023/01/05 12:34:30;;;;;;;2.73;1.10;;;13.10;46.00;;;;;;4958481;28;20548;-74
2023/01/05 12:37:25;;;;;;;2.77;1.10;;;13.00;47.30;;;;;;4960878;28;20901;-72
2023/01/05 12:40:02;;;;;;;2.83;1.20;;;13.30;46.40;;;;;;4953779;28;20431;-72
2023/01/05 12:42:40;;;;;;;2.73;1.10;;;13.50;46.00;;;;;;4969651;28;20932;-72
2023/01/05 12:45:31;;;;;;;2.80;1.10;;;13.70;45.00;;;;;;4959019;28;20466;-72
2023/01/05 12:48:41;;;;;;;2.90;1.30;;;14.00;44.30;;;;;;4953157;28;20451;-72
2023/01/05 12:51:40;;;;;;;2.80;1.20;;;13.90;45.00;;;;;;4911287;29;20461;-72
2023/01/05 12:54:29;;;;;;;2.80;1.20;;;14.10;44.40;;;;;;4913762;29;20473;-71
2023/01/05 12:57:05;;;;;;;3.10;1.50;;;14.10;43.20;;;;;;4942577;29;20473;-72
2023/01/05 12:59:46;;;;;;;2.90;1.20;;;14.00;44.50;;;;;;4943189;29;20430;-72
2023/01/05 13:02:41;;;;;;;2.80;1.20;;;14.00;44.30;;;;;;4935091;29;20784;-72
2023/01/05 13:05:15;;;;;;;5.00;2.27;;;13.40;45.50;;;;;;4928486;29;20542;-71
2023/01/05 13:07:47;;;;;;;2.90;1.23;;;13.30;47.40;;;;;;4945987;29;20441;-73
2023/01/05 13:10:42;;;;;;;2.90;1.30;;;13.50;46.20;;;;;;4936764;29;20427;-72
2023/01/05 13:13:21;;;;;;;2.90;1.30;;;13.40;47.40;;;;;;4910533;29;20535;-72
2023/01/05 13:16:30;;;;;;;2.73;1.10;;;13.30;47.50;;;;;;4924012;29;20546;-72
2023/01/05 13:19:33;;;;;;;2.90;1.27;;;13.90;45.20;;;;;;4924896;29;20431;-72
2023/01/05 13:22:10;;;;;;;2.93;1.33;;;14.20;44.30;;;;;;4953379;29;20867;-72
2023/01/05 13:24:49;;;;;;;2.90;1.30;;;14.40;43.40;;;;;;4954114;29;20673;-72
2023/01/05 13:27:15;;;;;;;2.80;1.30;;;14.60;43.00;;;;;;4952513;28;20960;-72
2023/01/05 13:29:47;;;;;;;2.87;1.27;;;14.50;42.70;;;;;;4991733;28;20964;-73
2023/01/05 13:32:24;;;;;;;2.80;1.10;;;14.40;42.30;;;;;;4993766;28;20437;-72
2023/01/05 13:35:05;;;;;;;2.80;1.20;;;14.50;42.10;;;;;;4994456;28;20454;-71
2023/01/05 13:37:50;;;;;;;2.80;1.20;;;14.20;42.40;;;;;;4992821;28;20455;-72
2023/01/05 13:40:25;;;;;;;2.77;1.10;;;13.70;43.40;;;;;;4998447;28;20431;-72